Shakopee, MN (55379)

7:54 AM CST on January 27, 2015 (GMT -0600)
KMNSHAKO1 | Change Station
CLOSE
Current Station
Personal Weather Station
Location: Shakopee, MN
Elevation: 807 ft
Nearby Weather Stations

Elev 807 ft 44.78 °N, 93.53 °W | Updated 5 seconds ago

Overcast
Overcast
32.2 °F
Feels Like 32 °F
N
0.0
Wind Variable Wind from NW
Gusts 0.0 mph

Today
High -- | Low -- °F
--% Chance of Precip.
Yesterday
High -- | Low -- °F
Precip. -- in
7:38 AM 5:15 PM
First Quarter, 54% visible
Pressure 30.14 in
Visibility 10.0 miles
Clouds Overcast 2100 ft
Windchill 32 °F
Dew Point 26 °F
Humidity 77%
Rainfall 0.00 in
Snow Depth Not available.
UV 0 out of 12
Pollen .10 out of 12
Air Quality Not available.
Flu Activity Not available.
METAR KFCM 271253Z 00000KT 10SM OVC021 01/M04 A3011 RMK AO2 SLP205 T00061044

More Conditions Fewer Conditions

Pressure 30.14 in
Visibility 10.0 miles
Clouds Overcast 2100 ft
Windchill 32 °F
Dew Point 26 °F
Humidity 77%
Rainfall 0.00 in
Snow Depth Not available.
UV 0 out of 12
Pollen .10 out of 12
Air Quality Not available.
Flu Activity Not available.
METAR KFCM 271253Z 00000KT 10SM OVC021 01/M04 A3011 RMK AO2 SLP205 T00061044

More Conditions Fewer Conditions

10-Day Weather Forecast

Almanac

Astronomy

Jan. 27, 2015 Rise Set
Actual Time
Civil Twilight
Nautical Twilight
Astronomical Twilight
Moon
Length of Visible Light
Length of Day
Tomorrow will be .
, % of the Moon is Illuminated

Today's Extremes

State Highs State Lows

Community

WunderPhotos

Upload Photos

1,790,628 photos uploaded!

WunderBlogs® & News

Nearby

Air Quality

  Air Quality AQ Index Pollutant
Not available.

Snow Depth

Station Depth Elevation

Earthquake Activity

City Distance Mag. Time & Date
Minimum magnitude displayed is 2.5.

Coastal Water Temperatures

Place Temperature

Nearby Weather Stations